createdAt,value
2018-12-19T00:00:32.593Z,12.10
2018-12-19T00:01:07.285Z,11.60
2018-12-19T00:01:41.897Z,11.40
2018-12-19T00:02:16.480Z,10.93
2018-12-19T00:02:51.705Z,11.47
2018-12-19T00:03:26.887Z,11.13
2018-12-19T00:04:01.585Z,12.00
2018-12-19T00:04:36.239Z,12.00
2018-12-19T00:05:10.838Z,10.87
2018-12-19T00:05:45.439Z,12.33
2018-12-19T00:06:20.033Z,11.10
2018-12-19T00:06:54.644Z,12.00
2018-12-19T00:07:29.281Z,11.83
2018-12-19T00:08:04.336Z,12.27
2018-12-19T00:08:39.118Z,10.90
2018-12-19T00:09:13.750Z,10.67
2018-12-19T00:09:48.369Z,11.07
2018-12-19T00:10:22.952Z,10.77
2018-12-19T00:10:57.702Z,10.67
2018-12-19T00:11:32.389Z,10.47
2018-12-19T00:12:07.028Z,11.87
2018-12-19T00:12:41.728Z,11.53
2018-12-19T00:13:18.382Z,11.03
2018-12-19T00:13:52.972Z,11.33
2018-12-19T00:14:27.771Z,10.40
2018-12-19T00:15:02.542Z,9.73
2018-12-19T00:15:37.247Z,10.00
2018-12-19T00:16:11.890Z,9.70
2018-12-19T00:16:46.476Z,11.00
2018-12-19T00:17:21.093Z,9.83
2018-12-19T00:17:55.742Z,9.60
2018-12-19T00:18:30.357Z,9.93
2018-12-19T00:19:05.037Z,9.87
2018-12-19T00:19:39.661Z,10.40
2018-12-19T00:20:14.278Z,9.40
2018-12-19T00:20:49.512Z,10.20
2018-12-19T00:21:24.171Z,9.20
2018-12-19T00:21:58.800Z,10.03
2018-12-19T00:22:33.434Z,9.87
2018-12-19T00:23:08.025Z,9.80
2018-12-19T00:23:42.678Z,10.80
2018-12-19T00:24:17.297Z,10.13
2018-12-19T00:24:51.942Z,9.13
2018-12-19T00:25:26.951Z,10.23
2018-12-19T00:26:01.973Z,9.60
2018-12-19T00:26:36.580Z,10.23
2018-12-19T00:27:11.335Z,9.67
2018-12-19T00:27:46.266Z,8.87
2018-12-19T00:28:20.857Z,9.90
2018-12-19T00:28:55.677Z,9.60
2018-12-19T00:29:30.432Z,9.73
2018-12-19T00:30:06.489Z,9.97
2018-12-19T00:30:41.497Z,10.37
2018-12-19T00:31:16.090Z,9.60
2018-12-19T00:31:50.769Z,9.97
2018-12-19T00:32:25.435Z,9.23
2018-12-19T00:33:00.092Z,10.50
2018-12-19T00:33:34.915Z,10.47
2018-12-19T00:34:09.625Z,10.73
2018-12-19T00:34:44.245Z,10.10
2018-12-19T00:35:18.965Z,10.33
2018-12-19T00:35:53.565Z,9.37
2018-12-19T00:36:28.311Z,9.73
2018-12-19T00:37:02.924Z,11.20
2018-12-19T00:37:37.500Z,10.47
2018-12-19T00:38:12.094Z,9.73
2018-12-19T00:38:46.723Z,10.20
2018-12-19T00:39:21.352Z,9.73
2018-12-19T00:39:56.199Z,9.63
2018-12-19T00:40:30.923Z,10.13
2018-12-19T00:41:05.507Z,9.43
2018-12-19T00:41:40.106Z,10.30
2018-12-19T00:42:14.814Z,10.17
2018-12-19T00:42:49.471Z,9.67
2018-12-19T00:43:24.159Z,10.23
2018-12-19T00:43:58.944Z,9.70
2018-12-19T00:44:33.648Z,9.10
2018-12-19T00:45:08.778Z,9.73
2018-12-19T00:45:43.452Z,9.27
2018-12-19T00:46:18.069Z,10.27
2018-12-19T00:46:52.793Z,10.27
2018-12-19T00:47:27.467Z,10.50
2018-12-19T00:48:02.089Z,9.67
2018-12-19T00:48:36.857Z,10.10
2018-12-19T00:49:11.611Z,10.33
2018-12-19T00:49:46.264Z,10.17
2018-12-19T00:50:21.060Z,10.60
2018-12-19T00:50:55.709Z,10.40
2018-12-19T00:51:30.418Z,9.87
2018-12-19T00:52:05.155Z,11.23
2018-12-19T00:52:39.847Z,9.80
2018-12-19T00:53:14.437Z,10.20
2018-12-19T00:53:49.029Z,10.20
2018-12-19T00:54:23.634Z,10.10
2018-12-19T00:54:58.451Z,9.83
2018-12-19T00:55:33.665Z,10.30
2018-12-19T00:56:08.293Z,10.17
2018-12-19T00:56:42.881Z,10.37
2018-12-19T00:57:17.489Z,10.17
2018-12-19T00:57:52.088Z,10.23
2018-12-19T00:58:26.770Z,11.43
2018-12-19T00:59:01.421Z,10.77
2018-12-19T00:59:36.176Z,11.03
2018-12-19T01:00:11.692Z,11.40
2018-12-19T01:00:46.318Z,10.93
2018-12-19T01:01:21.662Z,10.73
2018-12-19T01:01:56.780Z,10.90
2018-12-19T01:02:31.513Z,11.27
2018-12-19T01:03:06.143Z,11.30
2018-12-19T01:03:40.733Z,10.73
2018-12-19T01:04:15.357Z,11.33
2018-12-19T01:04:49.960Z,11.33
2018-12-19T01:05:24.668Z,11.63
2018-12-19T01:05:59.379Z,12.33
2018-12-19T01:06:34.116Z,12.53
2018-12-19T01:07:09.239Z,11.90
2018-12-19T01:07:43.945Z,11.10
2018-12-19T01:08:18.648Z,12.17
2018-12-19T01:08:53.377Z,11.63
2018-12-19T01:09:28.263Z,12.13
2018-12-19T01:10:03.218Z,11.43
2018-12-19T01:10:37.926Z,12.83
2018-12-19T01:11:12.684Z,12.63
2018-12-19T01:11:47.339Z,13.03
2018-12-19T01:12:21.970Z,12.87
2018-12-19T01:12:56.650Z,12.67
2018-12-19T01:13:31.909Z,12.27
2018-12-19T01:14:06.738Z,12.63
2018-12-19T01:14:41.371Z,12.80
2018-12-19T01:15:15.999Z,11.93
2018-12-19T01:15:50.692Z,13.30
2018-12-19T01:16:25.345Z,12.63
2018-12-19T01:17:00.133Z,12.63
2018-12-19T01:17:34.787Z,11.73
2018-12-19T01:18:09.540Z,12.03
2018-12-19T01:18:44.144Z,12.13
2018-12-19T01:19:18.760Z,12.40
2018-12-19T01:19:53.441Z,13.03
2018-12-19T01:20:28.166Z,13.23
2018-12-19T01:21:02.853Z,11.77
2018-12-19T01:21:37.886Z,12.97
2018-12-19T01:22:12.574Z,13.17
2018-12-19T01:22:47.776Z,12.83
2018-12-19T01:23:22.412Z,14.10
2018-12-19T01:23:57.069Z,14.00
2018-12-19T01:24:31.739Z,13.27
2018-12-19T01:25:06.871Z,13.70
2018-12-19T01:25:41.945Z,13.90
2018-12-19T01:26:16.562Z,13.83
2018-12-19T01:26:51.188Z,13.60
2018-12-19T01:27:25.804Z,14.43
2018-12-19T01:28:00.532Z,15.13
2018-12-19T01:28:35.263Z,15.13
2018-12-19T01:29:09.861Z,14.43
2018-12-19T01:29:44.480Z,14.53
2018-12-19T01:30:19.130Z,15.37
2018-12-19T01:30:53.750Z,16.67
2018-12-19T01:31:28.471Z,14.83
2018-12-19T01:32:03.257Z,16.47
2018-12-19T01:32:37.902Z,16.40
2018-12-19T01:33:12.539Z,15.60
2018-12-19T01:33:47.117Z,16.67
2018-12-19T01:34:21.817Z,16.27
2018-12-19T01:34:56.488Z,15.83
2018-12-19T01:35:31.230Z,15.73
2018-12-19T01:36:06.003Z,16.27
2018-12-19T01:36:40.676Z,16.33
2018-12-19T01:37:15.308Z,17.13
2018-12-19T01:37:49.908Z,15.80
2018-12-19T01:38:24.627Z,15.93
2018-12-19T01:38:59.374Z,15.63
2018-12-19T01:39:34.097Z,16.97
2018-12-19T01:40:08.803Z,15.53
2018-12-19T01:40:43.435Z,16.50
2018-12-19T01:41:18.104Z,16.00
2018-12-19T01:41:52.829Z,15.43
2018-12-19T01:42:27.614Z,16.77
2018-12-19T01:43:02.489Z,15.80
2018-12-19T01:43:37.290Z,14.93
2018-12-19T01:44:11.888Z,15.93
2018-12-19T01:44:46.548Z,15.83
2018-12-19T01:45:21.722Z,16.17
2018-12-19T01:45:56.352Z,15.67
2018-12-19T01:46:31.109Z,15.13
2018-12-19T01:47:05.688Z,15.80
2018-12-19T01:47:40.553Z,15.57
2018-12-19T01:48:15.169Z,16.10
2018-12-19T01:48:49.783Z,16.70
2018-12-19T01:49:24.916Z,16.87
2018-12-19T01:49:59.581Z,15.80
2018-12-19T01:50:34.335Z,16.23
2018-12-19T01:51:09.320Z,16.73
2018-12-19T01:51:44.059Z,15.73
2018-12-19T01:52:18.652Z,15.93
2018-12-19T01:52:53.255Z,16.40
2018-12-19T01:53:28.020Z,15.77
2018-12-19T01:54:02.737Z,16.13
2018-12-19T01:54:37.377Z,16.03
2018-12-19T01:55:12.013Z,15.90
2018-12-19T01:55:46.958Z,16.20
2018-12-19T01:56:21.572Z,15.93
2018-12-19T01:56:56.218Z,15.67
2018-12-19T01:57:31.026Z,16.63
2018-12-19T01:58:05.746Z,16.00
2018-12-19T01:58:40.454Z,16.57
2018-12-19T01:59:15.078Z,15.37
2018-12-19T01:59:50.176Z,16.67
2018-12-19T02:00:28.983Z,16.07
2018-12-19T02:01:03.745Z,15.00
2018-12-19T02:01:38.349Z,15.93
2018-12-19T02:02:13.470Z,16.27
2018-12-19T02:02:48.082Z,16.40
2018-12-19T02:03:22.685Z,16.20
2018-12-19T02:03:57.524Z,16.67
2018-12-19T02:04:32.248Z,16.60
2018-12-19T02:05:06.978Z,16.90
2018-12-19T02:05:41.827Z,16.03
2018-12-19T02:06:16.471Z,15.90
2018-12-19T02:06:51.083Z,16.13
2018-12-19T02:07:25.721Z,15.97
2018-12-19T02:08:00.363Z,16.23
2018-12-19T02:08:35.026Z,16.43
2018-12-19T02:09:10.149Z,16.17
2018-12-19T02:09:44.906Z,16.60
2018-12-19T02:10:19.526Z,16.90
2018-12-19T02:10:54.219Z,15.57
2018-12-19T02:11:28.879Z,16.90
2018-12-19T02:12:04.056Z,16.63
2018-12-19T02:12:38.781Z,16.87
2018-12-19T02:13:13.488Z,16.07
2018-12-19T02:13:48.295Z,15.70
2018-12-19T02:14:22.914Z,16.70
2018-12-19T02:14:57.673Z,16.70
2018-12-19T02:15:32.284Z,15.80
2018-12-19T02:16:06.960Z,16.70
2018-12-19T02:16:41.559Z,17.43
2018-12-19T02:17:16.193Z,17.23
2018-12-19T02:17:50.784Z,16.60
2018-12-19T02:18:25.402Z,16.73
2018-12-19T02:19:00.146Z,17.33
2018-12-19T02:19:34.803Z,15.80
2018-12-19T02:20:09.480Z,15.93
2018-12-19T02:20:44.093Z,15.73
2018-12-19T02:21:18.691Z,16.87
2018-12-19T02:21:53.414Z,17.20
2018-12-19T02:22:28.585Z,16.70
2018-12-19T02:23:03.312Z,15.60
2018-12-19T02:23:38.257Z,16.50
2018-12-19T02:24:12.909Z,16.37
2018-12-19T02:24:47.630Z,15.20
2018-12-19T02:25:22.244Z,16.67
2018-12-19T02:25:57.076Z,17.50
2018-12-19T02:26:31.776Z,16.20
2018-12-19T02:27:06.426Z,17.57
2018-12-19T02:27:41.092Z,17.23
2018-12-19T02:28:15.695Z,16.33
2018-12-19T02:28:50.750Z,16.20
2018-12-19T02:29:25.349Z,16.80
2018-12-19T02:30:00.125Z,16.07
2018-12-19T02:30:35.075Z,16.80
2018-12-19T02:31:10.057Z,16.57
2018-12-19T02:31:44.651Z,16.23
2018-12-19T02:32:19.342Z,16.23
2018-12-19T02:32:53.953Z,16.77
2018-12-19T02:33:28.729Z,17.17
2018-12-19T02:34:03.984Z,17.17
2018-12-19T02:34:38.700Z,16.10
2018-12-19T02:35:13.826Z,16.23
2018-12-19T02:35:48.421Z,15.37
2018-12-19T02:36:23.425Z,16.80
2018-12-19T02:36:58.076Z,16.07
2018-12-19T02:37:32.722Z,16.80
2018-12-19T02:38:07.436Z,16.17
2018-12-19T02:38:42.063Z,15.67
2018-12-19T02:39:16.657Z,16.77
2018-12-19T02:39:51.279Z,16.67
2018-12-19T02:40:25.925Z,16.20
2018-12-19T02:41:00.665Z,16.60
2018-12-19T02:41:35.324Z,15.90
2018-12-19T02:42:10.401Z,17.40
2018-12-19T02:42:45.021Z,16.73
2018-12-19T02:43:19.623Z,17.57
2018-12-19T02:43:54.287Z,16.63
2018-12-19T02:44:28.956Z,16.93
2018-12-19T02:45:04.656Z,16.30
2018-12-19T02:45:39.282Z,16.83
2018-12-19T02:46:13.918Z,16.03
2018-12-19T02:46:54.865Z,16.93
2018-12-19T02:47:29.600Z,15.43
2018-12-19T02:48:04.243Z,15.90
2018-12-19T02:48:38.891Z,16.20
2018-12-19T02:49:13.596Z,16.07
2018-12-19T02:49:48.221Z,16.07
2018-12-19T02:50:22.835Z,15.73
2018-12-19T02:50:58.292Z,15.93
2018-12-19T02:51:32.907Z,15.23
2018-12-19T02:52:07.158Z,15.60
2018-12-19T02:52:41.769Z,14.57
2018-12-19T02:53:16.398Z,14.10
2018-12-19T02:53:51.050Z,16.20
2018-12-19T02:54:25.773Z,16.13
2018-12-19T02:55:00.456Z,14.83
2018-12-19T02:55:35.164Z,14.40
2018-12-19T02:56:09.805Z,14.57
2018-12-19T02:56:44.425Z,15.03
2018-12-19T02:57:19.054Z,14.70
2018-12-19T02:57:54.002Z,15.63
2018-12-19T02:58:28.946Z,14.90
2018-12-19T02:59:03.669Z,14.87
2018-12-19T02:59:38.297Z,16.10
2018-12-19T03:00:12.940Z,15.73
2018-12-19T03:00:47.539Z,16.00
2018-12-19T03:01:22.162Z,16.13
2018-12-19T03:01:56.924Z,14.40
2018-12-19T03:02:31.615Z,14.70
2018-12-19T03:03:06.278Z,15.63
2018-12-19T03:03:40.923Z,16.07
2018-12-19T03:04:15.543Z,17.27
2018-12-19T03:04:50.187Z,16.43
2018-12-19T03:05:24.890Z,16.80
2018-12-19T03:05:59.616Z,14.70
2018-12-19T03:06:34.306Z,15.03
2018-12-19T03:07:09.047Z,16.07
2018-12-19T03:07:43.724Z,15.10
2018-12-19T03:08:18.340Z,14.37
2018-12-19T03:08:52.968Z,15.63
2018-12-19T03:09:27.699Z,14.83
2018-12-19T03:10:02.357Z,16.13
2018-12-19T03:10:37.074Z,14.83
2018-12-19T03:11:12.354Z,14.57
2018-12-19T03:11:46.993Z,14.37
2018-12-19T03:12:21.586Z,13.70
2018-12-19T03:12:56.250Z,13.67
2018-12-19T03:13:31.451Z,14.47
2018-12-19T03:14:06.103Z,14.40
2018-12-19T03:14:40.693Z,14.00
2018-12-19T03:15:15.320Z,14.70
2018-12-19T03:15:49.944Z,14.63
2018-12-19T03:16:24.898Z,15.20
2018-12-19T03:16:59.626Z,14.47
2018-12-19T03:17:34.312Z,14.40
2018-12-19T03:18:08.973Z,14.43
2018-12-19T03:18:43.564Z,14.50
2018-12-19T03:19:18.305Z,15.33
2018-12-19T03:19:52.946Z,14.43
2018-12-19T03:20:27.610Z,13.83
2018-12-19T03:21:02.633Z,14.87
2018-12-19T03:21:37.335Z,14.20
2018-12-19T03:22:11.950Z,13.87
2018-12-19T03:22:46.591Z,15.33
2018-12-19T03:23:21.173Z,15.10
2018-12-19T03:23:55.792Z,15.47
2018-12-19T03:24:30.677Z,15.87
2018-12-19T03:25:06.211Z,14.53
2018-12-19T03:25:40.820Z,14.57
2018-12-19T03:26:15.407Z,14.33
2018-12-19T03:26:56.368Z,15.10
2018-12-19T03:27:31.237Z,15.07
2018-12-19T03:28:06.031Z,14.77
2018-12-19T03:28:40.692Z,15.30
2018-12-19T03:29:15.412Z,15.37
2018-12-19T03:29:50.039Z,16.03
2018-12-19T03:30:24.770Z,14.93
2018-12-19T03:30:59.468Z,15.50
2018-12-19T03:31:34.132Z,15.67
2018-12-19T03:32:08.807Z,16.63
2018-12-19T03:32:43.422Z,16.37
2018-12-19T03:33:18.036Z,16.43
2018-12-19T03:33:52.658Z,16.30
2018-12-19T03:34:27.355Z,17.23
2018-12-19T03:35:02.019Z,16.97
2018-12-19T03:35:36.724Z,16.50
2018-12-19T03:36:11.398Z,17.23
2018-12-19T03:36:46.028Z,17.83
2018-12-19T03:37:20.627Z,16.90
2018-12-19T03:37:55.245Z,17.67
2018-12-19T03:38:30.238Z,18.10
2018-12-19T03:39:07.498Z,18.33
2018-12-19T03:39:42.070Z,18.97
2018-12-19T03:40:16.784Z,17.80
2018-12-19T03:40:51.491Z,17.73
2018-12-19T03:41:26.136Z,18.03
2018-12-19T03:42:00.755Z,18.97
2018-12-19T03:42:35.432Z,19.00
2018-12-19T03:43:10.061Z,18.70
2018-12-19T03:43:44.802Z,18.27
2018-12-19T03:44:19.485Z,18.37
2018-12-19T03:44:54.097Z,19.07
2018-12-19T03:45:28.791Z,19.80
2018-12-19T03:46:03.413Z,19.60
2018-12-19T03:46:38.484Z,19.27
2018-12-19T03:47:13.310Z,19.33
2018-12-19T03:47:47.910Z,18.87
2018-12-19T03:48:27.951Z,19.60
2018-12-19T03:49:02.594Z,18.37
2018-12-19T03:49:38.012Z,19.50
2018-12-19T03:50:12.953Z,19.33
2018-12-19T03:50:47.623Z,19.63
2018-12-19T03:51:22.244Z,20.23
2018-12-19T03:51:56.928Z,19.73
2018-12-19T03:52:31.684Z,18.20
2018-12-19T03:53:06.393Z,19.57
2018-12-19T03:53:40.992Z,19.90
2018-12-19T03:54:15.915Z,19.80
2018-12-19T03:54:50.539Z,19.30
2018-12-19T03:55:25.162Z,18.47
2018-12-19T03:55:59.957Z,19.20
2018-12-19T03:56:34.610Z,19.43
2018-12-19T03:57:09.928Z,19.97
2018-12-19T03:57:44.660Z,20.77
2018-12-19T03:58:19.367Z,18.00
2018-12-19T03:58:54.078Z,19.57
2018-12-19T03:59:28.931Z,19.93
2018-12-19T04:00:04.811Z,19.27
2018-12-19T04:00:39.448Z,19.73
2018-12-19T04:01:14.062Z,19.53
2018-12-19T04:01:48.785Z,18.37
2018-12-19T04:02:23.425Z,19.23
2018-12-19T04:02:58.288Z,19.80
2018-12-19T04:03:33.220Z,19.30
2018-12-19T04:04:07.816Z,20.10
2018-12-19T04:04:42.507Z,19.63
2018-12-19T04:05:17.112Z,19.07
2018-12-19T04:05:51.759Z,20.23
2018-12-19T04:06:26.424Z,19.63
2018-12-19T04:07:01.445Z,19.37
2018-12-19T04:07:36.072Z,19.10
2018-12-19T04:08:10.665Z,20.47
2018-12-19T04:08:45.277Z,20.37
2018-12-19T04:09:19.906Z,19.57
2018-12-19T04:09:57.983Z,18.50
2018-12-19T04:10:31.332Z,21.10
2018-12-19T04:11:06.488Z,19.73
2018-12-19T04:11:41.078Z,18.27
2018-12-19T04:12:15.783Z,19.80
2018-12-19T04:12:50.386Z,19.93
2018-12-19T04:13:25.019Z,19.53
2018-12-19T04:13:59.699Z,20.80
2018-12-19T04:14:34.462Z,20.10
2018-12-19T04:15:09.120Z,20.67
2018-12-19T04:15:43.740Z,20.33
2018-12-19T04:16:18.362Z,20.40
2018-12-19T04:16:53.093Z,19.30
2018-12-19T04:17:27.838Z,19.93
2018-12-19T04:18:02.610Z,19.03
2018-12-19T04:18:37.544Z,19.60
2018-12-19T04:19:12.189Z,18.77
2018-12-19T04:19:47.292Z,20.33
2018-12-19T04:20:21.902Z,20.47
2018-12-19T04:20:56.548Z,20.00
2018-12-19T04:21:31.238Z,20.27
2018-12-19T04:22:05.889Z,19.27
2018-12-19T04:22:40.536Z,19.37
2018-12-19T04:23:15.165Z,20.27
2018-12-19T04:23:49.749Z,19.47
2018-12-19T04:24:24.615Z,19.97
2018-12-19T04:24:59.375Z,19.23
2018-12-19T04:25:34.147Z,18.97
2018-12-19T04:26:08.763Z,19.53
2018-12-19T04:26:43.474Z,19.57
2018-12-19T04:27:18.076Z,20.13
2018-12-19T04:27:52.696Z,19.43
2018-12-19T04:28:27.865Z,19.57
2018-12-19T04:29:02.562Z,19.77
2018-12-19T04:29:37.739Z,19.00
2018-12-19T04:30:12.373Z,19.87
2018-12-19T04:30:46.976Z,19.57
2018-12-19T04:31:21.699Z,19.67
2018-12-19T04:31:56.358Z,19.60
2018-12-19T04:32:31.547Z,19.47
2018-12-19T04:33:06.281Z,20.27
2018-12-19T04:33:40.902Z,19.33
2018-12-19T04:34:15.567Z,19.37
2018-12-19T04:34:50.232Z,18.63
2018-12-19T04:35:24.936Z,19.73
2018-12-19T04:35:59.625Z,18.83
2018-12-19T04:36:34.287Z,19.43
2018-12-19T04:37:08.966Z,18.93
2018-12-19T04:37:44.159Z,19.70
2018-12-19T04:38:19.134Z,20.63
2018-12-19T04:38:53.760Z,20.03
2018-12-19T04:39:28.491Z,19.03
2018-12-19T04:40:05.716Z,18.67
2018-12-19T04:40:40.368Z,18.50
2018-12-19T04:41:15.532Z,19.40
2018-12-19T04:41:50.180Z,20.27
2018-12-19T04:42:24.769Z,19.27
2018-12-19T04:42:59.496Z,19.03
2018-12-19T04:43:34.129Z,19.70
2018-12-19T04:44:08.735Z,19.37
2018-12-19T04:44:43.378Z,20.17
2018-12-19T04:45:18.053Z,18.93
2018-12-19T04:45:52.653Z,19.60
2018-12-19T04:46:27.298Z,19.50
2018-12-19T04:47:01.928Z,18.83
2018-12-19T04:47:36.525Z,18.47
2018-12-19T04:48:11.167Z,18.53
2018-12-19T04:48:45.874Z,19.03
2018-12-19T04:49:20.618Z,18.90
2018-12-19T04:49:55.266Z,20.53
2018-12-19T04:50:29.967Z,19.53
2018-12-19T04:51:04.638Z,19.50
2018-12-19T04:51:39.287Z,19.13
2018-12-19T04:52:13.857Z,19.37
2018-12-19T04:52:48.469Z,19.37
2018-12-19T04:53:23.050Z,20.23
2018-12-19T04:53:57.738Z,19.10
2018-12-19T04:54:32.423Z,19.43
2018-12-19T04:55:07.661Z,17.77
2018-12-19T04:55:42.268Z,19.03
2018-12-19T04:56:16.874Z,18.83
2018-12-19T04:56:51.498Z,18.73
2018-12-19T04:57:26.108Z,19.17
2018-12-19T04:58:00.805Z,19.37
2018-12-19T04:58:35.464Z,20.30
2018-12-19T04:59:10.161Z,18.87
2018-12-19T04:59:45.008Z,19.10
2018-12-19T05:00:19.625Z,19.17
2018-12-19T05:00:54.728Z,18.63
2018-12-19T05:01:29.488Z,18.47
2018-12-19T05:02:04.696Z,18.23
2018-12-19T05:02:39.291Z,18.23
2018-12-19T05:03:13.996Z,19.23
2018-12-19T05:03:48.600Z,19.50
2018-12-19T05:04:23.253Z,18.37
2018-12-19T05:04:58.072Z,18.07
2018-12-19T05:05:33.092Z,19.03
2018-12-19T05:06:07.699Z,20.30
2018-12-19T05:06:42.285Z,18.77
2018-12-19T05:07:17.257Z,19.50
2018-12-19T05:07:52.356Z,18.67
2018-12-19T05:08:27.479Z,19.10
2018-12-19T05:09:02.100Z,19.03
2018-12-19T05:09:37.137Z,19.60
2018-12-19T05:10:12.536Z,17.13
2018-12-19T05:10:47.663Z,18.87
2018-12-19T05:11:22.289Z,20.60
2018-12-19T05:11:57.664Z,18.93
2018-12-19T05:12:34.214Z,18.87
2018-12-19T05:13:08.812Z,19.37
2018-12-19T05:13:43.487Z,18.20
2018-12-19T05:14:18.423Z,18.70
2018-12-19T05:14:53.489Z,17.23
2018-12-19T05:15:28.596Z,18.57
2018-12-19T05:16:03.306Z,18.87
2018-12-19T05:16:38.022Z,18.83
2018-12-19T05:17:12.612Z,17.97
2018-12-19T05:17:47.339Z,18.80
2018-12-19T05:18:21.949Z,18.57
2018-12-19T05:18:56.575Z,19.07
2018-12-19T05:19:31.330Z,18.63
2018-12-19T05:20:08.427Z,18.73
2018-12-19T05:20:43.035Z,18.43
2018-12-19T05:21:17.668Z,17.47
2018-12-19T05:21:52.268Z,18.03
2018-12-19T05:22:26.928Z,18.63
2018-12-19T05:23:01.682Z,18.63
2018-12-19T05:23:36.309Z,18.50
2018-12-19T05:24:10.978Z,17.17
2018-12-19T05:24:45.694Z,18.50
2018-12-19T05:25:20.302Z,17.33
2018-12-19T05:25:55.022Z,16.47
2018-12-19T05:26:29.909Z,16.67
2018-12-19T05:27:04.603Z,16.97
2018-12-19T05:27:39.361Z,17.47
2018-12-19T05:28:13.956Z,18.53
2018-12-19T05:28:48.603Z,18.70
2018-12-19T05:29:23.341Z,17.60
2018-12-19T05:29:58.043Z,17.83
2018-12-19T05:30:32.769Z,18.57
2018-12-19T05:31:07.502Z,17.27
2018-12-19T05:31:42.102Z,17.33
2018-12-19T05:32:16.720Z,16.70
2018-12-19T05:32:51.422Z,16.27
2018-12-19T05:33:26.153Z,16.20
2018-12-19T05:34:00.910Z,16.50
2018-12-19T05:34:36.001Z,17.60
2018-12-19T05:35:10.633Z,16.77
2018-12-19T05:35:45.283Z,16.53
2018-12-19T05:36:19.908Z,16.10
2018-12-19T05:36:54.726Z,17.40
2018-12-19T05:37:29.485Z,16.60
2018-12-19T05:38:04.151Z,16.63
2018-12-19T05:38:38.775Z,16.23
2018-12-19T05:39:13.395Z,16.40
2018-12-19T05:39:48.010Z,18.90
2018-12-19T05:40:22.664Z,17.57
2018-12-19T05:40:57.399Z,16.67
2018-12-19T05:41:32.079Z,16.80
2018-12-19T05:42:06.775Z,15.67
2018-12-19T05:42:41.372Z,15.67
2018-12-19T05:43:15.977Z,15.17
2018-12-19T05:43:50.576Z,14.70
2018-12-19T05:44:25.223Z,15.53
2018-12-19T05:44:59.937Z,14.60
2018-12-19T05:45:34.676Z,16.23
2018-12-19T05:46:09.401Z,15.17
2018-12-19T05:46:44.098Z,15.70
2018-12-19T05:47:19.069Z,15.23
2018-12-19T05:47:53.725Z,16.00
2018-12-19T05:48:28.458Z,16.37
2018-12-19T05:49:03.261Z,16.67
2018-12-19T05:49:38.277Z,16.00
2018-12-19T05:50:13.754Z,15.87
2018-12-19T05:50:48.443Z,15.53
2018-12-19T05:51:23.099Z,15.20
2018-12-19T05:51:57.769Z,15.60
2018-12-19T05:52:32.927Z,15.00
2018-12-19T05:53:08.161Z,15.17
2018-12-19T05:53:42.787Z,15.67
2018-12-19T05:54:18.059Z,14.87
2018-12-19T05:54:52.921Z,15.77
2018-12-19T05:55:27.754Z,15.23
2018-12-19T05:56:02.456Z,15.50
2018-12-19T05:56:37.581Z,15.03
2018-12-19T05:57:12.522Z,15.37
2018-12-19T05:57:47.150Z,14.83
2018-12-19T05:58:21.770Z,14.50
2018-12-19T05:58:56.418Z,15.27
2018-12-19T05:59:31.474Z,15.97
2018-12-19T06:00:08.469Z,15.90
2018-12-19T06:00:43.134Z,14.30
2018-12-19T06:01:17.755Z,14.53
2018-12-19T06:01:52.388Z,15.27
2018-12-19T06:02:27.172Z,15.03
2018-12-19T06:03:01.894Z,13.83
2018-12-19T06:03:37.165Z,15.00
2018-12-19T06:04:11.832Z,14.03
2018-12-19T06:04:46.483Z,15.07
2018-12-19T06:05:21.097Z,14.33
2018-12-19T06:05:55.824Z,12.90
2018-12-19T06:06:30.473Z,14.63
2018-12-19T06:07:05.148Z,14.13
2018-12-19T06:07:39.744Z,14.60
2018-12-19T06:08:14.385Z,13.10
2018-12-19T06:08:49.061Z,13.23
2018-12-19T06:09:23.730Z,13.83
2018-12-19T06:10:05.075Z,13.47
2018-12-19T06:10:39.708Z,13.40
2018-12-19T06:11:14.396Z,12.33
2018-12-19T06:11:48.989Z,13.00
2018-12-19T06:12:24.151Z,12.73
2018-12-19T06:12:58.880Z,13.13
2018-12-19T06:13:33.631Z,14.17
2018-12-19T06:14:08.241Z,13.23
2018-12-19T06:14:42.889Z,13.20
2018-12-19T06:15:17.493Z,12.57
2018-12-19T06:15:52.127Z,12.50
2018-12-19T06:16:26.862Z,12.90
2018-12-19T06:17:01.549Z,13.03
2018-12-19T06:17:36.265Z,12.30
2018-12-19T06:18:10.891Z,13.17
2018-12-19T06:18:45.609Z,12.23
2018-12-19T06:19:20.241Z,11.97
2018-12-19T06:19:54.894Z,11.87
2018-12-19T06:20:29.692Z,11.70
2018-12-19T06:21:04.979Z,11.47
2018-12-19T06:21:39.602Z,11.57
2018-12-19T06:22:14.214Z,12.43
2018-12-19T06:22:48.812Z,12.47
2018-12-19T06:23:23.430Z,11.73
2018-12-19T06:23:58.144Z,11.87
2018-12-19T06:24:32.961Z,12.13
2018-12-19T06:25:08.055Z,12.20
2018-12-19T06:25:43.147Z,11.50
2018-12-19T06:26:17.877Z,11.37
2018-12-19T06:26:52.461Z,12.07
2018-12-19T06:27:27.100Z,11.97
2018-12-19T06:28:01.790Z,12.80
2018-12-19T06:28:36.402Z,12.17
2018-12-19T06:29:10.992Z,12.87
2018-12-19T06:29:45.630Z,12.03
2018-12-19T06:30:20.564Z,13.20
2018-12-19T06:30:55.218Z,12.53
2018-12-19T06:31:29.865Z,11.77
2018-12-19T06:32:05.006Z,12.27
2018-12-19T06:32:40.005Z,12.57
2018-12-19T06:33:14.632Z,12.67
2018-12-19T06:33:49.624Z,10.87
2018-12-19T06:34:24.220Z,11.77
2018-12-19T06:34:58.842Z,11.13
2018-12-19T06:35:33.476Z,11.47
2018-12-19T06:36:08.101Z,10.90
2018-12-19T06:36:42.722Z,11.63
2018-12-19T06:37:17.370Z,10.60
2018-12-19T06:37:52.083Z,11.30
2018-12-19T06:38:26.717Z,11.23
2018-12-19T06:39:01.779Z,10.87
2018-12-19T06:39:36.468Z,11.30
2018-12-19T06:40:11.156Z,11.27
2018-12-19T06:40:45.787Z,10.63
2018-12-19T06:41:20.502Z,10.50
2018-12-19T06:41:55.105Z,10.07
2018-12-19T06:42:29.767Z,9.37
2018-12-19T06:43:04.962Z,9.33
2018-12-19T06:43:40.269Z,10.20
2018-12-19T06:44:44.597Z,9.63
2018-12-19T06:45:19.273Z,10.77
2018-12-19T06:45:54.202Z,9.70
2018-12-19T06:46:28.918Z,9.73
2018-12-19T06:47:04.075Z,10.50
2018-12-19T06:47:38.688Z,9.83
2018-12-19T06:48:13.278Z,9.27
2018-12-19T06:48:47.885Z,9.10
2018-12-19T06:49:22.477Z,9.10
2018-12-19T06:49:57.225Z,9.30
2018-12-19T06:50:32.133Z,9.60
2018-12-19T06:51:06.859Z,8.23
2018-12-19T06:51:41.481Z,8.23
2018-12-19T06:52:16.172Z,9.10
2018-12-19T06:52:50.768Z,9.73
2018-12-19T06:53:25.381Z,9.33
2018-12-19T06:54:00.129Z,9.90
2018-12-19T06:54:34.770Z,10.13
2018-12-19T06:55:09.410Z,9.40
2018-12-19T06:55:44.613Z,10.23
2018-12-19T06:56:19.269Z,9.57
2018-12-19T06:56:53.877Z,9.37
2018-12-19T06:57:28.593Z,8.97
2018-12-19T06:58:03.256Z,9.30
2018-12-19T06:58:37.884Z,9.00
2018-12-19T06:59:12.504Z,9.43
2018-12-19T06:59:47.223Z,8.83
2018-12-19T07:00:21.821Z,8.33
2018-12-19T07:00:56.416Z,9.03
2018-12-19T07:01:31.400Z,8.57
2018-12-19T07:02:06.120Z,8.50
2018-12-19T07:02:40.798Z,8.33
2018-12-19T07:03:15.409Z,8.10
2018-12-19T07:03:50.044Z,8.80
2018-12-19T07:04:24.670Z,7.90
2018-12-19T07:04:59.438Z,23.70
2018-12-19T07:05:34.536Z,23.50
2018-12-19T07:06:09.332Z,8.63
2018-12-19T07:06:43.972Z,17.67
2018-12-19T07:07:18.642Z,46.03
2018-12-19T07:07:53.289Z,11.30
2018-12-19T07:08:28.125Z,8.17
2018-12-19T07:09:04.086Z,7.33
2018-12-19T07:09:38.732Z,7.00
2018-12-19T07:10:13.332Z,9.87
2018-12-19T07:10:48.103Z,8.50
2018-12-19T07:11:24.045Z,8.30
2018-12-19T07:11:58.732Z,11.47
2018-12-19T07:12:33.469Z,6.87
2018-12-19T07:13:08.135Z,8.63
2018-12-19T07:13:42.778Z,14.50
2018-12-19T07:14:17.392Z,10.03
2018-12-19T07:14:52.361Z,21.27
2018-12-19T07:15:27.103Z,12.27
2018-12-19T07:16:01.744Z,8.20
2018-12-19T07:16:36.569Z,11.83
2018-12-19T07:17:11.193Z,7.77
2018-12-19T07:17:46.180Z,8.90
2018-12-19T07:18:20.801Z,11.37
2018-12-19T07:18:55.594Z,7.67
2018-12-19T07:19:30.553Z,7.90
2018-12-19T07:20:06.295Z,6.47
2018-12-19T07:20:40.946Z,9.27
2018-12-19T07:21:15.536Z,9.03
2018-12-19T07:21:50.253Z,7.67
2018-12-19T07:22:24.895Z,10.67
2018-12-19T07:22:59.669Z,9.37
2018-12-19T07:23:34.430Z,8.67
2018-12-19T07:24:09.173Z,8.93
2018-12-19T07:24:43.874Z,9.30
2018-12-19T07:25:18.654Z,7.53
2018-12-19T07:25:53.254Z,7.17
2018-12-19T07:26:28.473Z,7.53
2018-12-19T07:27:03.650Z,8.23
2018-12-19T07:27:38.222Z,7.17
2018-12-19T07:28:12.856Z,8.43
2018-12-19T07:28:47.514Z,7.93
2018-12-19T07:29:22.182Z,7.83
2018-12-19T07:29:57.987Z,9.00
2018-12-19T07:30:33.290Z,8.47